sensor_id;sensor_type;location;lat;lon;timestamp;temperature;humidity
70079;DHT22;57451;52.496;13.456;2022-12-01T00:00:03;2.30;75.60
70079;DHT22;57451;52.496;13.456;2022-12-01T00:02:30;2.30;75.60
70079;DHT22;57451;52.496;13.456;2022-12-01T00:04:59;2.30;75.40
70079;DHT22;57451;52.496;13.456;2022-12-01T00:07:26;2.40;75.50
70079;DHT22;57451;52.496;13.456;2022-12-01T00:09:54;2.30;75.20
70079;DHT22;57451;52.496;13.456;2022-12-01T00:12:40;2.30;75.20
70079;DHT22;57451;52.496;13.456;2022-12-01T00:15:10;2.40;75.00
70079;DHT22;57451;52.496;13.456;2022-12-01T00:17:37;2.30;74.90
70079;DHT22;57451;52.496;13.456;2022-12-01T00:20:07;2.30;75.20
70079;DHT22;57451;52.496;13.456;2022-12-01T00:22:34;2.30;75.00
70079;DHT22;57451;52.496;13.456;2022-12-01T00:25:02;2.30;75.10
70079;DHT22;57451;52.496;13.456;2022-12-01T00:27:30;2.20;74.60
70079;DHT22;57451;52.496;13.456;2022-12-01T00:29:57;2.30;74.80
70079;DHT22;57451;52.496;13.456;2022-12-01T00:32:24;2.20;74.70
70079;DHT22;57451;52.496;13.456;2022-12-01T00:34:51;2.20;74.90
70079;DHT22;57451;52.496;13.456;2022-12-01T00:37:20;2.20;74.70
70079;DHT22;57451;52.496;13.456;2022-12-01T00:39:47;2.20;74.80
70079;DHT22;57451;52.496;13.456;2022-12-01T00:42:15;2.20;74.80
70079;DHT22;57451;52.496;13.456;2022-12-01T00:44:42;2.20;74.60
70079;DHT22;57451;52.496;13.456;2022-12-01T00:47:10;2.30;74.30
70079;DHT22;57451;52.496;13.456;2022-12-01T00:49:38;2.20;74.50
70079;DHT22;57451;52.496;13.456;2022-12-01T00:52:05;2.20;74.60
70079;DHT22;57451;52.496;13.456;2022-12-01T00:54:34;2.20;74.80
70079;DHT22;57451;52.496;13.456;2022-12-01T00:57:01;2.20;74.80
70079;DHT22;57451;52.496;13.456;2022-12-01T00:59:28;2.20;74.60
70079;DHT22;57451;52.496;13.456;2022-12-01T01:01:56;2.20;74.50
70079;DHT22;57451;52.496;13.456;2022-12-01T01:04:23;2.20;74.80
70079;DHT22;57451;52.496;13.456;2022-12-01T01:06:50;2.20;74.90
70079;DHT22;57451;52.496;13.456;2022-12-01T01:09:18;2.20;74.90
70079;DHT22;57451;52.496;13.456;2022-12-01T01:11:47;2.20;75.00
70079;DHT22;57451;52.496;13.456;2022-12-01T01:14:14;2.20;75.00
70079;DHT22;57451;52.496;13.456;2022-12-01T01:16:42;2.20;74.90
70079;DHT22;57451;52.496;13.456;2022-12-01T01:19:09;2.20;75.00
70079;DHT22;57451;52.496;13.456;2022-12-01T01:21:37;2.20;75.00
70079;DHT22;57451;52.496;13.456;2022-12-01T01:24:05;2.20;75.00
70079;DHT22;57451;52.496;13.456;2022-12-01T01:26:33;2.20;75.00
70079;DHT22;57451;52.496;13.456;2022-12-01T01:29:04;2.20;75.00
70079;DHT22;57451;52.496;13.456;2022-12-01T01:31:33;2.20;74.90
70079;DHT22;57451;52.496;13.456;2022-12-01T01:34:01;2.30;75.00
70079;DHT22;57451;52.496;13.456;2022-12-01T01:36:30;2.20;74.90
70079;DHT22;57451;52.496;13.456;2022-12-01T01:38:57;2.30;74.90
70079;DHT22;57451;52.496;13.456;2022-12-01T01:41:24;2.30;74.90
70079;DHT22;57451;52.496;13.456;2022-12-01T01:43:53;2.30;74.80
70079;DHT22;57451;52.496;13.456;2022-12-01T01:46:24;2.30;74.90
70079;DHT22;57451;52.496;13.456;2022-12-01T01:48:54;2.30;75.00
70079;DHT22;57451;52.496;13.456;2022-12-01T01:51:25;2.30;74.80
70079;DHT22;57451;52.496;13.456;2022-12-01T01:53:55;2.30;74.70
70079;DHT22;57451;52.496;13.456;2022-12-01T01:56:24;2.20;75.00
70079;DHT22;57451;52.496;13.456;2022-12-01T01:58:52;2.30;75.00
70079;DHT22;57451;52.496;13.456;2022-12-01T02:01:19;2.20;74.80
70079;DHT22;57451;52.496;13.456;2022-12-01T02:03:50;2.20;75.00
70079;DHT22;57451;52.496;13.456;2022-12-01T02:06:18;2.20;75.00
70079;DHT22;57451;52.496;13.456;2022-12-01T02:08:46;2.20;75.20
70079;DHT22;57451;52.496;13.456;2022-12-01T02:11:27;2.20;75.30
70079;DHT22;57451;52.496;13.456;2022-12-01T02:14:07;2.20;75.40
70079;DHT22;57451;52.496;13.456;2022-12-01T02:16:42;2.20;75.30
70079;DHT22;57451;52.496;13.456;2022-12-01T02:19:40;2.20;75.20
70079;DHT22;57451;52.496;13.456;2022-12-01T02:22:18;2.10;75.50
70079;DHT22;57451;52.496;13.456;2022-12-01T02:24:56;2.10;75.60
70079;DHT22;57451;52.496;13.456;2022-12-01T02:27:41;2.00;75.20
70079;DHT22;57451;52.496;13.456;2022-12-01T02:30:16;2.00;75.80
70079;DHT22;57451;52.496;13.456;2022-12-01T02:32:56;2.00;75.80
70079;DHT22;57451;52.496;13.456;2022-12-01T02:35:31;2.00;75.50
70079;DHT22;57451;52.496;13.456;2022-12-01T02:38:08;2.00;75.60
70079;DHT22;57451;52.496;13.456;2022-12-01T02:40:41;2.00;75.30
70079;DHT22;57451;52.496;13.456;2022-12-01T02:43:14;2.10;75.30
70079;DHT22;57451;52.496;13.456;2022-12-01T02:45:48;2.10;75.30
70079;DHT22;57451;52.496;13.456;2022-12-01T02:48:22;2.00;75.30
70079;DHT22;57451;52.496;13.456;2022-12-01T02:50:52;2.00;75.40
70079;DHT22;57451;52.496;13.456;2022-12-01T02:53:21;2.00;75.50
70079;DHT22;57451;52.496;13.456;2022-12-01T02:55:51;1.90;75.40
70079;DHT22;57451;52.496;13.456;2022-12-01T02:58:19;2.00;75.40
70079;DHT22;57451;52.496;13.456;2022-12-01T03:01:03;2.00;75.30
70079;DHT22;57451;52.496;13.456;2022-12-01T03:03:50;2.00;75.30
70079;DHT22;57451;52.496;13.456;2022-12-01T03:06:27;2.00;75.10
70079;DHT22;57451;52.496;13.456;2022-12-01T03:09:03;1.90;75.10
70079;DHT22;57451;52.496;13.456;2022-12-01T03:11:42;1.80;75.60
70079;DHT22;57451;52.496;13.456;2022-12-01T03:14:20;1.80;75.80
70079;DHT22;57451;52.496;13.456;2022-12-01T03:16:50;1.80;75.90
70079;DHT22;57451;52.496;13.456;2022-12-01T03:19:26;1.80;75.80
70079;DHT22;57451;52.496;13.456;2022-12-01T03:21:58;1.80;75.60
70079;DHT22;57451;52.496;13.456;2022-12-01T03:24:29;1.80;75.70
70079;DHT22;57451;52.496;13.456;2022-12-01T03:27:01;1.80;75.70
70079;DHT22;57451;52.496;13.456;2022-12-01T03:29:31;1.80;75.50
70079;DHT22;57451;52.496;13.456;2022-12-01T03:32:03;1.80;75.70
70079;DHT22;57451;52.496;13.456;2022-12-01T03:34:36;1.90;75.70
70079;DHT22;57451;52.496;13.456;2022-12-01T03:37:08;1.90;75.60
70079;DHT22;57451;52.496;13.456;2022-12-01T03:39:37;1.90;75.60
70079;DHT22;57451;52.496;13.456;2022-12-01T03:42:09;1.70;75.50
70079;DHT22;57451;52.496;13.456;2022-12-01T03:44:43;1.70;76.30
70079;DHT22;57451;52.496;13.456;2022-12-01T03:47:15;1.80;76.20
70079;DHT22;57451;52.496;13.456;2022-12-01T03:49:45;1.80;75.90
70079;DHT22;57451;52.496;13.456;2022-12-01T03:52:19;1.80;75.90
70079;DHT22;57451;52.496;13.456;2022-12-01T03:54:58;1.80;75.80
70079;DHT22;57451;52.496;13.456;2022-12-01T03:57:32;1.80;75.80
70079;DHT22;57451;52.496;13.456;2022-12-01T04:00:01;1.80;75.50
70079;DHT22;57451;52.496;13.456;2022-12-01T04:02:38;1.80;76.00
70079;DHT22;57451;52.496;13.456;2022-12-01T04:05:08;1.70;76.00
70079;DHT22;57451;52.496;13.456;2022-12-01T04:07:35;1.70;76.00
70079;DHT22;57451;52.496;13.456;2022-12-01T04:10:03;1.70;76.10
70079;DHT22;57451;52.496;13.456;2022-12-01T04:12:31;1.70;75.70
70079;DHT22;57451;52.496;13.456;2022-12-01T04:15:03;1.70;75.80
70079;DHT22;57451;52.496;13.456;2022-12-01T04:17:31;1.80;75.70
70079;DHT22;57451;52.496;13.456;2022-12-01T04:19:59;1.80;75.80
70079;DHT22;57451;52.496;13.456;2022-12-01T04:22:27;1.80;75.50
70079;DHT22;57451;52.496;13.456;2022-12-01T04:24:55;1.70;75.60
70079;DHT22;57451;52.496;13.456;2022-12-01T04:27:22;1.60;75.90
70079;DHT22;57451;52.496;13.456;2022-12-01T04:29:49;1.60;76.20
70079;DHT22;57451;52.496;13.456;2022-12-01T04:32:17;1.60;76.40
70079;DHT22;57451;52.496;13.456;2022-12-01T04:34:44;1.60;76.00
70079;DHT22;57451;52.496;13.456;2022-12-01T04:37:12;1.60;76.20
70079;DHT22;57451;52.496;13.456;2022-12-01T04:39:40;1.70;76.10
70079;DHT22;57451;52.496;13.456;2022-12-01T04:42:10;1.60;76.10
70079;DHT22;57451;52.496;13.456;2022-12-01T04:44:38;1.60;76.20
70079;DHT22;57451;52.496;13.456;2022-12-01T04:47:05;1.70;76.00
70079;DHT22;57451;52.496;13.456;2022-12-01T04:49:33;1.60;76.10
70079;DHT22;57451;52.496;13.456;2022-12-01T04:52:01;1.70;76.20
70079;DHT22;57451;52.496;13.456;2022-12-01T04:54:28;1.70;76.10
70079;DHT22;57451;52.496;13.456;2022-12-01T04:56:57;1.70;76.10
70079;DHT22;57451;52.496;13.456;2022-12-01T04:59:24;1.70;76.10
70079;DHT22;57451;52.496;13.456;2022-12-01T05:01:52;1.70;76.00
70079;DHT22;57451;52.496;13.456;2022-12-01T05:04:19;1.80;75.80
70079;DHT22;57451;52.496;13.456;2022-12-01T05:06:46;1.80;75.50
70079;DHT22;57451;52.496;13.456;2022-12-01T05:09:15;1.70;75.60
70079;DHT22;57451;52.496;13.456;2022-12-01T05:11:44;1.70;75.90
70079;DHT22;57451;52.496;13.456;2022-12-01T05:14:12;1.70;75.90
70079;DHT22;57451;52.496;13.456;2022-12-01T05:16:40;1.70;75.80
70079;DHT22;57451;52.496;13.456;2022-12-01T05:19:07;1.70;75.70
70079;DHT22;57451;52.496;13.456;2022-12-01T05:21:53;1.70;75.50
70079;DHT22;57451;52.496;13.456;2022-12-01T05:24:21;1.60;75.70
70079;DHT22;57451;52.496;13.456;2022-12-01T05:26:48;1.60;75.60
70079;DHT22;57451;52.496;13.456;2022-12-01T05:29:17;1.60;75.80
70079;DHT22;57451;52.496;13.456;2022-12-01T05:31:44;1.70;75.30
70079;DHT22;57451;52.496;13.456;2022-12-01T05:34:12;1.70;75.20
70079;DHT22;57451;52.496;13.456;2022-12-01T05:36:39;1.70;75.40
70079;DHT22;57451;52.496;13.456;2022-12-01T05:39:06;1.60;75.50
70079;DHT22;57451;52.496;13.456;2022-12-01T05:41:34;1.60;75.50
70079;DHT22;57451;52.496;13.456;2022-12-01T05:44:01;1.70;75.20
70079;DHT22;57451;52.496;13.456;2022-12-01T05:46:30;1.60;75.40
70079;DHT22;57451;52.496;13.456;2022-12-01T05:48:58;1.60;75.40
70079;DHT22;57451;52.496;13.456;2022-12-01T05:51:25;1.50;75.50
70079;DHT22;57451;52.496;13.456;2022-12-01T05:53:52;1.50;76.00
70079;DHT22;57451;52.496;13.456;2022-12-01T05:56:20;1.50;76.00
70079;DHT22;57451;52.496;13.456;2022-12-01T05:58:47;1.50;76.00
70079;DHT22;57451;52.496;13.456;2022-12-01T06:01:15;1.60;75.90
70079;DHT22;57451;52.496;13.456;2022-12-01T06:03:43;1.60;75.80
70079;DHT22;57451;52.496;13.456;2022-12-01T06:06:11;1.60;75.60
70079;DHT22;57451;52.496;13.456;2022-12-01T06:08:38;1.60;75.50
70079;DHT22;57451;52.496;13.456;2022-12-01T06:11:05;1.70;75.50
70079;DHT22;57451;52.496;13.456;2022-12-01T06:13:33;1.70;75.30
70079;DHT22;57451;52.496;13.456;2022-12-01T06:16:02;1.70;75.30
70079;DHT22;57451;52.496;13.456;2022-12-01T06:18:31;1.70;75.00
70079;DHT22;57451;52.496;13.456;2022-12-01T06:21:00;1.70;75.10
70079;DHT22;57451;52.496;13.456;2022-12-01T06:23:28;1.70;75.10
70079;DHT22;57451;52.496;13.456;2022-12-01T06:25:57;1.60;75.00
70079;DHT22;57451;52.496;13.456;2022-12-01T06:28:24;1.60;75.00
70079;DHT22;57451;52.496;13.456;2022-12-01T06:30:51;1.50;75.40
70079;DHT22;57451;52.496;13.456;2022-12-01T06:33:25;1.60;75.30
70079;DHT22;57451;52.496;13.456;2022-12-01T06:35:56;1.60;75.30
70079;DHT22;57451;52.496;13.456;2022-12-01T06:38:25;1.60;75.20
70079;DHT22;57451;52.496;13.456;2022-12-01T06:40:52;1.60;74.90
70079;DHT22;57451;52.496;13.456;2022-12-01T06:43:21;1.70;75.00
70079;DHT22;57451;52.496;13.456;2022-12-01T06:45:48;1.70;75.00
70079;DHT22;57451;52.496;13.456;2022-12-01T06:48:16;1.60;74.80
70079;DHT22;57451;52.496;13.456;2022-12-01T06:50:43;1.60;74.70
70079;DHT22;57451;52.496;13.456;2022-12-01T06:53:11;1.60;74.70
70079;DHT22;57451;52.496;13.456;2022-12-01T06:55:39;1.60;74.80
70079;DHT22;57451;52.496;13.456;2022-12-01T06:58:07;1.60;74.80
70079;DHT22;57451;52.496;13.456;2022-12-01T07:00:34;1.60;74.90
70079;DHT22;57451;52.496;13.456;2022-12-01T07:03:02;1.60;75.00
70079;DHT22;57451;52.496;13.456;2022-12-01T07:05:29;1.70;74.60
70079;DHT22;57451;52.496;13.456;2022-12-01T07:07:57;1.70;74.80
70079;DHT22;57451;52.496;13.456;2022-12-01T07:10:26;1.70;74.80
70079;DHT22;57451;52.496;13.456;2022-12-01T07:12:56;1.70;74.70
70079;DHT22;57451;52.496;13.456;2022-12-01T07:15:23;1.70;74.40
70079;DHT22;57451;52.496;13.456;2022-12-01T07:17:51;1.70;74.50
70079;DHT22;57451;52.496;13.456;2022-12-01T07:20:18;1.70;74.00
70079;DHT22;57451;52.496;13.456;2022-12-01T07:22:46;1.60;74.60
70079;DHT22;57451;52.496;13.456;2022-12-01T07:25:13;1.60;74.80
70079;DHT22;57451;52.496;13.456;2022-12-01T07:27:41;1.60;74.60
70079;DHT22;57451;52.496;13.456;2022-12-01T07:30:10;1.70;74.60
70079;DHT22;57451;52.496;13.456;2022-12-01T07:32:38;1.60;74.70
70079;DHT22;57451;52.496;13.456;2022-12-01T07:35:07;1.70;74.50
70079;DHT22;57451;52.496;13.456;2022-12-01T07:37:36;1.70;74.30
70079;DHT22;57451;52.496;13.456;2022-12-01T07:40:04;1.70;74.50
70079;DHT22;57451;52.496;13.456;2022-12-01T07:42:32;1.70;74.30
70079;DHT22;57451;52.496;13.456;2022-12-01T07:44:59;1.80;74.00
70079;DHT22;57451;52.496;13.456;2022-12-01T07:47:28;1.80;74.00
70079;DHT22;57451;52.496;13.456;2022-12-01T07:49:55;1.70;73.80
70079;DHT22;57451;52.496;13.456;2022-12-01T07:52:23;1.70;74.20
70079;DHT22;57451;52.496;13.456;2022-12-01T07:54:50;1.70;74.00
70079;DHT22;57451;52.496;13.456;2022-12-01T07:57:18;1.70;74.20
70079;DHT22;57451;52.496;13.456;2022-12-01T07:59:46;1.70;74.20
70079;DHT22;57451;52.496;13.456;2022-12-01T08:02:14;1.70;74.20
70079;DHT22;57451;52.496;13.456;2022-12-01T08:04:43;1.80;74.20
70079;DHT22;57451;52.496;13.456;2022-12-01T08:07:10;1.70;74.10
70079;DHT22;57451;52.496;13.456;2022-12-01T08:09:38;1.70;73.80
70079;DHT22;57451;52.496;13.456;2022-12-01T08:12:06;1.70;74.10
70079;DHT22;57451;52.496;13.456;2022-12-01T08:14:33;1.70;74.00
70079;DHT22;57451;52.496;13.456;2022-12-01T08:17:01;1.70;73.90
70079;DHT22;57451;52.496;13.456;2022-12-01T08:19:28;1.70;74.20
70079;DHT22;57451;52.496;13.456;2022-12-01T08:21:57;1.70;74.20
70079;DHT22;57451;52.496;13.456;2022-12-01T08:24:24;1.70;74.30
70079;DHT22;57451;52.496;13.456;2022-12-01T08:26:52;1.70;74.40
70079;DHT22;57451;52.496;13.456;2022-12-01T08:29:19;1.80;74.40
70079;DHT22;57451;52.496;13.456;2022-12-01T08:31:46;1.80;74.10
70079;DHT22;57451;52.496;13.456;2022-12-01T08:34:14;1.80;74.30
70079;DHT22;57451;52.496;13.456;2022-12-01T08:36:41;1.80;74.10
70079;DHT22;57451;52.496;13.456;2022-12-01T08:39:10;1.90;73.90
70079;DHT22;57451;52.496;13.456;2022-12-01T08:41:37;1.90;73.90
70079;DHT22;57451;52.496;13.456;2022-12-01T08:44:05;1.80;74.00
70079;DHT22;57451;52.496;13.456;2022-12-01T08:46:33;1.80;74.30
70079;DHT22;57451;52.496;13.456;2022-12-01T08:49:02;1.90;74.00
70079;DHT22;57451;52.496;13.456;2022-12-01T08:51:31;1.90;73.70
70079;DHT22;57451;52.496;13.456;2022-12-01T08:53:59;1.90;73.80
70079;DHT22;57451;52.496;13.456;2022-12-01T08:56:30;1.80;73.90
70079;DHT22;57451;52.496;13.456;2022-12-01T08:58:58;1.80;73.40
70079;DHT22;57451;52.496;13.456;2022-12-01T09:01:26;1.90;73.40
70079;DHT22;57451;52.496;13.456;2022-12-01T09:03:55;1.90;73.50
70079;DHT22;57451;52.496;13.456;2022-12-01T09:06:34;1.90;73.20
70079;DHT22;57451;52.496;13.456;2022-12-01T09:09:03;1.90;73.40
70079;DHT22;57451;52.496;13.456;2022-12-01T09:11:32;2.00;73.30
70079;DHT22;57451;52.496;13.456;2022-12-01T09:13:59;2.00;73.20
70079;DHT22;57451;52.496;13.456;2022-12-01T09:16:27;2.00;73.10
70079;DHT22;57451;52.496;13.456;2022-12-01T09:18:54;2.00;72.70
70079;DHT22;57451;52.496;13.456;2022-12-01T09:21:24;2.00;72.80
70079;DHT22;57451;52.496;13.456;2022-12-01T09:23:53;2.00;72.70
70079;DHT22;57451;52.496;13.456;2022-12-01T09:26:21;2.00;72.80
70079;DHT22;57451;52.496;13.456;2022-12-01T09:28:55;2.00;72.70
70079;DHT22;57451;52.496;13.456;2022-12-01T09:31:23;2.00;73.10
70079;DHT22;57451;52.496;13.456;2022-12-01T09:33:54;1.90;73.10
70079;DHT22;57451;52.496;13.456;2022-12-01T09:36:22;2.00;73.30
70079;DHT22;57451;52.496;13.456;2022-12-01T09:38:49;2.00;73.00
70079;DHT22;57451;52.496;13.456;2022-12-01T09:41:19;2.00;73.00
70079;DHT22;57451;52.496;13.456;2022-12-01T09:43:55;2.00;72.90
70079;DHT22;57451;52.496;13.456;2022-12-01T09:46:28;2.00;73.10
70079;DHT22;57451;52.496;13.456;2022-12-01T09:48:57;2.10;73.10
70079;DHT22;57451;52.496;13.456;2022-12-01T09:51:27;2.10;72.90
70079;DHT22;57451;52.496;13.456;2022-12-01T09:53:57;2.10;72.80
70079;DHT22;57451;52.496;13.456;2022-12-01T09:56:26;2.10;72.60
70079;DHT22;57451;52.496;13.456;2022-12-01T09:58:58;2.10;72.60
70079;DHT22;57451;52.496;13.456;2022-12-01T10:01:31;2.00;72.50
70079;DHT22;57451;52.496;13.456;2022-12-01T10:04:04;2.10;72.70
70079;DHT22;57451;52.496;13.456;2022-12-01T10:06:37;2.10;72.50
70079;DHT22;57451;52.496;13.456;2022-12-01T10:09:14;2.20;72.20
70079;DHT22;57451;52.496;13.456;2022-12-01T10:11:45;2.20;72.30
70079;DHT22;57451;52.496;13.456;2022-12-01T10:14:16;2.10;72.10
70079;DHT22;57451;52.496;13.456;2022-12-01T10:16:53;2.10;72.10
70079;DHT22;57451;52.496;13.456;2022-12-01T10:19:27;2.10;72.20
70079;DHT22;57451;52.496;13.456;2022-12-01T10:22:08;2.20;72.20
70079;DHT22;57451;52.496;13.456;2022-12-01T10:24:53;2.20;72.60
70079;DHT22;57451;52.496;13.456;2022-12-01T10:27:32;2.20;72.30
70079;DHT22;57451;52.496;13.456;2022-12-01T10:30:07;2.20;72.50
70079;DHT22;57451;52.496;13.456;2022-12-01T10:32:42;2.20;72.40
70079;DHT22;57451;52.496;13.456;2022-12-01T10:35:15;2.20;72.60
70079;DHT22;57451;52.496;13.456;2022-12-01T10:37:44;2.30;72.60
70079;DHT22;57451;52.496;13.456;2022-12-01T10:40:13;2.30;71.80
70079;DHT22;57451;52.496;13.456;2022-12-01T10:42:42;2.20;71.70
70079;DHT22;57451;52.496;13.456;2022-12-01T10:45:16;2.30;71.70
70079;DHT22;57451;52.496;13.456;2022-12-01T10:48:06;2.30;71.30
70079;DHT22;57451;52.496;13.456;2022-12-01T10:50:34;2.30;71.40
70079;DHT22;57451;52.496;13.456;2022-12-01T10:53:03;2.20;71.50
70079;DHT22;57451;52.496;13.456;2022-12-01T10:55:32;2.20;71.90
70079;DHT22;57451;52.496;13.456;2022-12-01T10:58:11;2.20;72.10
70079;DHT22;57451;52.496;13.456;2022-12-01T11:00:42;2.30;71.80
70079;DHT22;57451;52.496;13.456;2022-12-01T11:03:30;2.20;71.50
70079;DHT22;57451;52.496;13.456;2022-12-01T11:06:00;2.10;71.50
70079;DHT22;57451;52.496;13.456;2022-12-01T11:08:32;2.10;71.90
70079;DHT22;57451;52.496;13.456;2022-12-01T11:11:02;2.20;72.00
70079;DHT22;57451;52.496;13.456;2022-12-01T11:13:32;2.20;72.00
70079;DHT22;57451;52.496;13.456;2022-12-01T11:16:03;2.30;71.80
70079;DHT22;57451;52.496;13.456;2022-12-01T11:18:34;2.30;71.20
70079;DHT22;57451;52.496;13.456;2022-12-01T11:21:07;2.30;71.30
70079;DHT22;57451;52.496;13.456;2022-12-01T11:23:36;2.30;71.40
70079;DHT22;57451;52.496;13.456;2022-12-01T11:26:10;2.30;71.50
70079;DHT22;57451;52.496;13.456;2022-12-01T11:28:41;2.30;71.30
70079;DHT22;57451;52.496;13.456;2022-12-01T11:31:11;2.30;71.20
70079;DHT22;57451;52.496;13.456;2022-12-01T11:33:49;2.30;71.40
70079;DHT22;57451;52.496;13.456;2022-12-01T11:36:31;2.40;71.20
70079;DHT22;57451;52.496;13.456;2022-12-01T11:39:00;2.40;71.30
70079;DHT22;57451;52.496;13.456;2022-12-01T11:41:33;2.40;71.40
70079;DHT22;57451;52.496;13.456;2022-12-01T11:44:03;2.40;71.30
70079;DHT22;57451;52.496;13.456;2022-12-01T11:46:50;2.40;70.80
70079;DHT22;57451;52.496;13.456;2022-12-01T11:49:41;2.30;70.90
70079;DHT22;57451;52.496;13.456;2022-12-01T11:52:23;2.40;71.10
70079;DHT22;57451;52.496;13.456;2022-12-01T11:54:56;2.40;71.00
70079;DHT22;57451;52.496;13.456;2022-12-01T11:57:24;2.40;70.80
70079;DHT22;57451;52.496;13.456;2022-12-01T12:00:04;2.30;71.10
70079;DHT22;57451;52.496;13.456;2022-12-01T12:02:40;2.40;71.00
70079;DHT22;57451;52.496;13.456;2022-12-01T12:05:39;2.40;71.20
70079;DHT22;57451;52.496;13.456;2022-12-01T12:08:17;2.40;71.30
70079;DHT22;57451;52.496;13.456;2022-12-01T12:10:54;2.40;71.20
70079;DHT22;57451;52.496;13.456;2022-12-01T12:13:43;2.40;71.40
70079;DHT22;57451;52.496;13.456;2022-12-01T12:16:24;2.40;71.30
70079;DHT22;57451;52.496;13.456;2022-12-01T12:19:12;2.40;71.20
70079;DHT22;57451;52.496;13.456;2022-12-01T12:21:47;2.40;71.30
70079;DHT22;57451;52.496;13.456;2022-12-01T12:27:10;2.50;71.00
70079;DHT22;57451;52.496;13.456;2022-12-01T12:29:54;2.50;70.80
70079;DHT22;57451;52.496;13.456;2022-12-01T12:32:41;2.50;71.00
70079;DHT22;57451;52.496;13.456;2022-12-01T12:35:25;2.50;71.00
70079;DHT22;57451;52.496;13.456;2022-12-01T12:40:50;2.50;70.60
70079;DHT22;57451;52.496;13.456;2022-12-01T12:43:26;2.50;70.50
70079;DHT22;57451;52.496;13.456;2022-12-01T12:46:01;2.50;70.60
70079;DHT22;57451;52.496;13.456;2022-12-01T12:48:41;2.50;70.40
70079;DHT22;57451;52.496;13.456;2022-12-01T12:51:35;2.50;70.50
70079;DHT22;57451;52.496;13.456;2022-12-01T12:54:14;2.50;70.60
70079;DHT22;57451;52.496;13.456;2022-12-01T12:56:46;2.50;70.50
70079;DHT22;57451;52.496;13.456;2022-12-01T12:59:20;2.50;70.70
70079;DHT22;57451;52.496;13.456;2022-12-01T13:01:54;2.40;70.70
70079;DHT22;57451;52.496;13.456;2022-12-01T13:04:29;2.40;70.90
70079;DHT22;57451;52.496;13.456;2022-12-01T13:07:02;2.40;71.00
70079;DHT22;57451;52.496;13.456;2022-12-01T13:09:35;2.40;70.90
70079;DHT22;57451;52.496;13.456;2022-12-01T13:12:07;2.40;70.70
70079;DHT22;57451;52.496;13.456;2022-12-01T13:14:39;2.50;70.80
70079;DHT22;57451;52.496;13.456;2022-12-01T13:17:13;2.50;70.70
70079;DHT22;57451;52.496;13.456;2022-12-01T13:19:43;2.50;70.50
70079;DHT22;57451;52.496;13.456;2022-12-01T13:22:15;2.50;70.40
70079;DHT22;57451;52.496;13.456;2022-12-01T13:24:43;2.50;70.10
70079;DHT22;57451;52.496;13.456;2022-12-01T13:27:16;2.50;70.40
70079;DHT22;57451;52.496;13.456;2022-12-01T13:29:46;2.50;70.40
70079;DHT22;57451;52.496;13.456;2022-12-01T13:32:33;2.50;70.00
70079;DHT22;57451;52.496;13.456;2022-12-01T13:35:02;2.50;69.90
70079;DHT22;57451;52.496;13.456;2022-12-01T13:37:35;2.50;70.20
70079;DHT22;57451;52.496;13.456;2022-12-01T13:40:09;2.50;70.20
70079;DHT22;57451;52.496;13.456;2022-12-01T13:42:39;2.50;69.60
70079;DHT22;57451;52.496;13.456;2022-12-01T13:45:12;2.50;70.00
70079;DHT22;57451;52.496;13.456;2022-12-01T13:47:49;2.50;70.00
70079;DHT22;57451;52.496;13.456;2022-12-01T13:53:32;2.50;69.70
70079;DHT22;57451;52.496;13.456;2022-12-01T13:58:49;2.50;69.90
70079;DHT22;57451;52.496;13.456;2022-12-01T14:01:40;2.60;69.80
70079;DHT22;57451;52.496;13.456;2022-12-01T14:04:29;2.60;69.60
70079;DHT22;57451;52.496;13.456;2022-12-01T14:10:25;2.60;69.50
70079;DHT22;57451;52.496;13.456;2022-12-01T14:12:56;2.60;69.40
70079;DHT22;57451;52.496;13.456;2022-12-01T14:15:31;2.60;69.80
70079;DHT22;57451;52.496;13.456;2022-12-01T14:18:03;2.60;69.60
70079;DHT22;57451;52.496;13.456;2022-12-01T14:20:34;2.60;69.50
70079;DHT22;57451;52.496;13.456;2022-12-01T14:23:17;2.60;69.30
70079;DHT22;57451;52.496;13.456;2022-12-01T14:26:10;2.60;69.60
70079;DHT22;57451;52.496;13.456;2022-12-01T14:29:08;2.50;69.70
70079;DHT22;57451;52.496;13.456;2022-12-01T14:34:43;2.60;69.70
70079;DHT22;57451;52.496;13.456;2022-12-01T14:37:13;2.60;69.50
70079;DHT22;57451;52.496;13.456;2022-12-01T14:39:44;2.60;69.50
70079;DHT22;57451;52.496;13.456;2022-12-01T14:42:21;2.60;69.50
70079;DHT22;57451;52.496;13.456;2022-12-01T14:45:10;2.60;69.50
70079;DHT22;57451;52.496;13.456;2022-12-01T14:47:42;2.60;69.60
70079;DHT22;57451;52.496;13.456;2022-12-01T14:50:14;2.60;69.80
70079;DHT22;57451;52.496;13.456;2022-12-01T14:52:46;2.60;69.80
70079;DHT22;57451;52.496;13.456;2022-12-01T14:55:18;2.50;69.70
70079;DHT22;57451;52.496;13.456;2022-12-01T14:57:50;2.50;69.80
70079;DHT22;57451;52.496;13.456;2022-12-01T15:00:20;2.50;69.90
70079;DHT22;57451;52.496;13.456;2022-12-01T15:02:53;2.50;69.80
70079;DHT22;57451;52.496;13.456;2022-12-01T15:05:23;2.50;69.90
70079;DHT22;57451;52.496;13.456;2022-12-01T15:07:53;2.50;69.80
70079;DHT22;57451;52.496;13.456;2022-12-01T15:10:48;2.50;69.80
70079;DHT22;57451;52.496;13.456;2022-12-01T15:13:21;2.50;69.70
70079;DHT22;57451;52.496;13.456;2022-12-01T15:15:51;2.60;69.40
70079;DHT22;57451;52.496;13.456;2022-12-01T15:18:21;2.50;69.40
70079;DHT22;57451;52.496;13.456;2022-12-01T15:20:49;2.60;69.40
70079;DHT22;57451;52.496;13.456;2022-12-01T15:23:21;2.60;69.30
70079;DHT22;57451;52.496;13.456;2022-12-01T15:25:49;2.50;69.40
70079;DHT22;57451;52.496;13.456;2022-12-01T15:28:20;2.50;69.90
70079;DHT22;57451;52.496;13.456;2022-12-01T15:30:50;2.40;69.70
70079;DHT22;57451;52.496;13.456;2022-12-01T15:33:20;2.40;70.30
70079;DHT22;57451;52.496;13.456;2022-12-01T15:35:54;2.50;70.30
70079;DHT22;57451;52.496;13.456;2022-12-01T15:38:24;2.40;70.10
70079;DHT22;57451;52.496;13.456;2022-12-01T15:40:54;2.40;70.30
70079;DHT22;57451;52.496;13.456;2022-12-01T15:43:53;2.40;70.40
70079;DHT22;57451;52.496;13.456;2022-12-01T15:46:26;2.40;70.80
70079;DHT22;57451;52.496;13.456;2022-12-01T15:49:05;2.40;70.80
70079;DHT22;57451;52.496;13.456;2022-12-01T15:51:34;2.40;70.60
70079;DHT22;57451;52.496;13.456;2022-12-01T15:54:02;2.40;70.70
70079;DHT22;57451;52.496;13.456;2022-12-01T15:56:31;2.40;71.00
70079;DHT22;57451;52.496;13.456;2022-12-01T15:59:06;2.50;71.00
70079;DHT22;57451;52.496;13.456;2022-12-01T16:01:35;2.50;70.90
70079;DHT22;57451;52.496;13.456;2022-12-01T16:04:05;2.50;71.10
70079;DHT22;57451;52.496;13.456;2022-12-01T16:06:34;2.50;71.20
70079;DHT22;57451;52.496;13.456;2022-12-01T16:09:04;2.50;71.20
70079;DHT22;57451;52.496;13.456;2022-12-01T16:11:32;2.40;71.60
70079;DHT22;57451;52.496;13.456;2022-12-01T16:14:02;2.50;71.60